createdAt,value
2018-09-03T00:00:25.847Z,19.15
2018-09-03T00:01:25.839Z,19.16
2018-09-03T00:02:25.843Z,19.16
2018-09-03T00:03:25.814Z,19.15
2018-09-03T00:04:25.802Z,19.23
2018-09-03T00:05:25.799Z,19.20
2018-09-03T00:06:25.778Z,19.20
2018-09-03T00:07:25.789Z,19.07
2018-09-03T00:08:25.757Z,19.24
2018-09-03T00:09:25.761Z,19.09
2018-09-03T00:10:25.732Z,19.12
2018-09-03T00:11:25.731Z,19.07
2018-09-03T00:12:25.729Z,19.21
2018-09-03T00:13:25.725Z,19.17
2018-09-03T00:14:25.689Z,19.16
2018-09-03T00:15:25.682Z,19.13
2018-09-03T00:16:25.668Z,19.06
2018-09-03T00:17:25.671Z,19.06
2018-09-03T00:18:25.655Z,19.25
2018-09-03T00:19:25.633Z,19.12
2018-09-03T00:20:25.620Z,19.16
2018-09-03T00:21:25.612Z,19.09
2018-09-03T00:22:25.618Z,19.13
2018-09-03T00:23:25.591Z,19.10
2018-09-03T00:24:25.599Z,19.16
2018-09-03T00:25:25.566Z,19.21
2018-09-03T00:26:25.555Z,19.07
2018-09-03T00:27:25.578Z,19.20
2018-09-03T00:28:25.532Z,19.17
2018-09-03T00:29:25.547Z,19.21
2018-09-03T00:30:25.513Z,19.10
2018-09-03T00:31:25.499Z,19.24
2018-09-03T00:32:25.509Z,19.17
2018-09-03T00:33:25.485Z,19.17
2018-09-03T00:34:25.482Z,19.15
2018-09-03T00:35:25.456Z,19.07
2018-09-03T00:36:25.448Z,19.13
2018-09-03T00:37:25.453Z,19.12
2018-09-03T00:38:25.422Z,19.12
2018-09-03T00:39:25.409Z,19.07
2018-09-03T00:40:25.406Z,19.16
2018-09-03T00:41:25.387Z,19.16
2018-09-03T00:42:25.380Z,19.20
2018-09-03T00:43:25.380Z,19.12
2018-09-03T00:44:25.365Z,19.15
2018-09-03T00:45:25.344Z,19.07
2018-09-03T00:46:25.331Z,19.21
2018-09-03T00:47:25.318Z,19.16
2018-09-03T00:48:25.335Z,19.20
2018-09-03T00:49:25.298Z,19.13
2018-09-03T00:50:25.288Z,19.13
2018-09-03T00:51:25.287Z,19.09
2018-09-03T00:52:25.265Z,19.17
2018-09-03T00:53:25.269Z,19.23
2018-09-03T00:54:25.243Z,19.17
2018-09-03T00:55:25.246Z,19.20
2018-09-03T00:56:25.219Z,19.16
2018-09-03T00:57:25.207Z,19.10
2018-09-03T00:58:25.215Z,19.07
2018-09-03T00:59:25.188Z,19.10
2018-09-03T01:00:25.182Z,19.16
2018-09-03T01:01:25.165Z,19.07
2018-09-03T01:02:25.163Z,19.13
2018-09-03T01:03:25.168Z,19.05
2018-09-03T01:04:25.130Z,19.15
2018-09-03T01:05:25.117Z,19.15
2018-09-03T01:06:25.114Z,19.10
2018-09-03T01:07:25.107Z,19.09
2018-09-03T01:08:25.108Z,19.06
2018-09-03T01:09:25.075Z,19.10
2018-09-03T01:10:25.063Z,19.09
2018-09-03T01:11:25.050Z,19.15
2018-09-03T01:12:25.041Z,19.20
2018-09-03T01:13:25.051Z,19.06
2018-09-03T01:14:25.018Z,19.21
2018-09-03T01:15:25.024Z,19.21
2018-09-03T01:16:24.996Z,19.20
2018-09-03T01:17:25.006Z,19.15
2018-09-03T01:18:25.005Z,19.20
2018-09-03T01:19:24.962Z,19.16
2018-09-03T01:20:24.952Z,19.16
2018-09-03T01:21:24.943Z,19.15
2018-09-03T01:22:24.930Z,19.13
2018-09-03T01:23:24.932Z,19.15
2018-09-03T01:24:24.908Z,19.13
2018-09-03T01:25:24.895Z,19.16
2018-09-03T01:26:24.886Z,19.24
2018-09-03T01:27:24.873Z,19.13
2018-09-03T01:28:24.898Z,19.16
2018-09-03T01:29:24.899Z,19.15
2018-09-03T01:30:24.860Z,19.13
2018-09-03T01:31:24.827Z,19.20
2018-09-03T01:32:24.823Z,19.17
2018-09-03T01:33:24.826Z,19.09
2018-09-03T01:34:24.799Z,19.07
2018-09-03T01:35:24.796Z,19.10
2018-09-03T01:36:24.775Z,19.17
2018-09-03T01:37:24.760Z,19.16
2018-09-03T01:38:24.766Z,19.17
2018-09-03T01:39:24.741Z,19.20
2018-09-03T01:40:24.729Z,19.24
2018-09-03T01:41:24.727Z,19.21
2018-09-03T01:42:24.705Z,19.09
2018-09-03T01:43:24.709Z,19.13
2018-09-03T01:44:24.683Z,19.05
2018-09-03T01:45:24.676Z,19.07
2018-09-03T01:46:24.672Z,19.10
2018-09-03T01:47:24.650Z,19.17
2018-09-03T01:48:24.654Z,19.20
2018-09-03T01:49:24.630Z,19.23
2018-09-03T01:50:24.620Z,19.16
2018-09-03T01:51:24.615Z,19.15
2018-09-03T01:52:24.594Z,19.15
2018-09-03T01:53:24.597Z,19.07
2018-09-03T01:54:24.571Z,19.23
2018-09-03T01:55:24.560Z,19.24
2018-09-03T01:56:24.547Z,19.27
2018-09-03T01:57:24.538Z,19.13
2018-09-03T01:58:24.526Z,19.07
2018-09-03T01:59:24.531Z,19.09
2018-09-03T02:00:24.507Z,19.20
2018-09-03T02:01:24.502Z,19.24
2018-09-03T02:02:24.486Z,19.23
2018-09-03T02:03:24.470Z,19.13
2018-09-03T02:04:24.473Z,19.20
2018-09-03T02:05:24.451Z,19.16
2018-09-03T02:06:24.436Z,19.12
2018-09-03T02:07:24.430Z,19.16
2018-09-03T02:08:24.425Z,19.12
2018-09-03T02:09:24.436Z,19.15
2018-09-03T02:10:24.397Z,19.25
2018-09-03T02:11:24.381Z,19.24
2018-09-03T02:12:24.374Z,19.15
2018-09-03T02:13:24.380Z,19.20
2018-09-03T02:14:24.384Z,19.23
2018-09-03T02:15:24.336Z,19.21
2018-09-03T02:16:24.323Z,19.21
2018-09-03T02:17:24.312Z,19.06
2018-09-03T02:18:24.303Z,19.16
2018-09-03T02:19:24.304Z,19.17
2018-09-03T02:20:24.280Z,19.23
2018-09-03T02:21:24.284Z,19.15
2018-09-03T02:22:24.258Z,19.13
2018-09-03T02:23:24.251Z,19.12
2018-09-03T02:24:24.259Z,19.25
2018-09-03T02:25:24.222Z,19.10
2018-09-03T02:26:24.210Z,19.16
2018-09-03T02:27:24.200Z,19.17
2018-09-03T02:28:24.189Z,19.07
2018-09-03T02:29:24.199Z,19.15
2018-09-03T02:30:24.179Z,19.12
2018-09-03T02:31:24.160Z,19.15
2018-09-03T02:32:24.143Z,19.02
2018-09-03T02:33:24.133Z,19.20
2018-09-03T02:34:24.138Z,19.21
2018-09-03T02:35:24.112Z,19.16
2018-09-03T02:36:24.099Z,19.12
2018-09-03T02:37:24.102Z,19.16
2018-09-03T02:38:24.076Z,19.16
2018-09-03T02:39:24.085Z,19.23
2018-09-03T02:40:24.057Z,19.07
2018-09-03T02:41:24.053Z,19.07
2018-09-03T02:42:24.032Z,19.07
2018-09-03T02:43:24.022Z,19.07
2018-09-03T02:44:24.031Z,19.06
2018-09-03T02:45:24.004Z,19.10
2018-09-03T02:46:23.992Z,19.07
2018-09-03T02:47:23.986Z,19.23
2018-09-03T02:48:23.964Z,19.20
2018-09-03T02:49:23.972Z,19.23
2018-09-03T02:50:23.943Z,19.17
2018-09-03T02:51:23.932Z,19.25
2018-09-03T02:52:23.925Z,19.23
2018-09-03T02:53:23.908Z,19.25
2018-09-03T02:54:23.914Z,19.06
2018-09-03T02:55:23.887Z,19.10
2018-09-03T02:56:23.878Z,19.20
2018-09-03T02:57:23.868Z,19.21
2018-09-03T02:58:23.853Z,19.23
2018-09-03T02:59:23.861Z,19.10
2018-09-03T03:00:23.830Z,19.09
2018-09-03T03:01:23.818Z,19.13
2018-09-03T03:02:23.808Z,19.09
2018-09-03T03:03:23.800Z,19.17
2018-09-03T03:04:23.807Z,19.17
2018-09-03T03:05:23.785Z,19.24
2018-09-03T03:06:23.763Z,19.17
2018-09-03T03:07:23.753Z,19.16
2018-09-03T03:08:23.746Z,19.24
2018-09-03T03:09:23.750Z,19.20
2018-09-03T03:10:23.719Z,19.09
2018-09-03T03:11:23.709Z,19.24
2018-09-03T03:12:23.697Z,19.21
2018-09-03T03:13:23.701Z,19.10
2018-09-03T03:14:23.688Z,19.17
2018-09-03T03:15:23.662Z,19.17
2018-09-03T03:16:23.651Z,19.10
2018-09-03T03:17:23.639Z,19.23
2018-09-03T03:18:23.629Z,19.16
2018-09-03T03:19:23.640Z,19.23
2018-09-03T03:20:23.623Z,19.16
2018-09-03T03:21:23.595Z,19.27
2018-09-03T03:22:23.588Z,19.10
2018-09-03T03:23:23.571Z,19.24
2018-09-03T03:24:23.593Z,19.17
2018-09-03T03:25:23.564Z,19.21
2018-09-03T03:26:23.543Z,19.12
2018-09-03T03:27:23.527Z,19.10
2018-09-03T03:28:23.520Z,19.21
2018-09-03T03:29:23.514Z,19.25
2018-09-03T03:30:23.520Z,19.20
2018-09-03T03:31:23.483Z,19.10
2018-09-03T03:32:23.472Z,19.21
2018-09-03T03:33:23.465Z,19.24
2018-09-03T03:34:23.451Z,19.07
2018-09-03T03:35:23.459Z,19.23
2018-09-03T03:36:23.435Z,19.16
2018-09-03T03:37:23.417Z,19.21
2018-09-03T03:38:23.406Z,19.21
2018-09-03T03:39:23.393Z,19.25
2018-09-03T03:40:23.399Z,19.09
2018-09-03T03:41:23.377Z,19.21
2018-09-03T03:42:23.374Z,19.12
2018-09-03T03:43:23.349Z,19.24
2018-09-03T03:44:23.346Z,19.20
2018-09-03T03:45:23.355Z,19.16
2018-09-03T03:46:23.314Z,19.07
2018-09-03T03:47:23.307Z,19.13
2018-09-03T03:48:23.294Z,19.17
2018-09-03T03:49:23.283Z,19.23
2018-09-03T03:50:23.295Z,19.20
2018-09-03T03:51:23.259Z,19.21
2018-09-03T03:52:23.252Z,19.25
2018-09-03T03:53:23.248Z,19.09
2018-09-03T03:54:23.226Z,19.09
2018-09-03T03:55:23.230Z,19.17
2018-09-03T03:56:23.209Z,19.20
2018-09-03T03:57:23.199Z,19.27
2018-09-03T03:58:23.188Z,19.23
2018-09-03T03:59:23.196Z,19.12
2018-09-03T04:00:23.178Z,19.20
2018-09-03T04:01:23.150Z,19.23
2018-09-03T04:02:23.138Z,19.21
2018-09-03T04:03:23.127Z,19.16
2018-09-03T04:04:23.122Z,19.21
2018-09-03T04:05:23.121Z,19.17
2018-09-03T04:06:23.097Z,19.16
2018-09-03T04:07:23.084Z,19.20
2018-09-03T04:08:23.095Z,19.21
2018-09-03T04:09:23.066Z,19.21
2018-09-03T04:10:23.070Z,19.13
2018-09-03T04:11:23.038Z,19.23
2018-09-03T04:12:23.030Z,19.24
2018-09-03T04:13:23.016Z,19.16
2018-09-03T04:14:23.007Z,19.21
2018-09-03T04:15:23.040Z,19.17
2018-09-03T04:16:22.987Z,19.17
2018-09-03T04:17:22.975Z,19.16
2018-09-03T04:18:22.964Z,19.21
2018-09-03T04:19:22.956Z,19.20
2018-09-03T04:20:22.963Z,19.23
2018-09-03T04:21:22.930Z,19.16
2018-09-03T04:22:22.918Z,19.23
2018-09-03T04:23:23.155Z,19.07
2018-09-03T04:24:22.900Z,19.09
2018-09-03T04:25:22.899Z,19.07
2018-09-03T04:26:22.884Z,19.10
2018-09-03T04:27:22.863Z,19.23
2018-09-03T04:28:22.853Z,19.21
2018-09-03T04:29:22.841Z,19.21
2018-09-03T04:30:22.847Z,19.16
2018-09-03T04:31:22.823Z,19.21
2018-09-03T04:32:22.852Z,19.17
2018-09-03T04:33:22.796Z,19.24
2018-09-03T04:34:22.786Z,19.17
2018-09-03T04:35:22.790Z,19.13
2018-09-03T04:36:22.761Z,19.20
2018-09-03T04:37:22.766Z,19.21
2018-09-03T04:38:22.739Z,19.23
2018-09-03T04:39:22.729Z,19.28
2018-09-03T04:40:22.736Z,19.24
2018-09-03T04:41:22.711Z,19.28
2018-09-03T04:42:22.699Z,19.23
2018-09-03T04:43:22.717Z,19.30
2018-09-03T04:44:23.517Z,19.27
2018-09-03T04:45:22.687Z,19.24
2018-09-03T04:46:22.675Z,19.25
2018-09-03T04:47:22.660Z,19.25
2018-09-03T04:48:22.650Z,19.25
2018-09-03T04:49:22.650Z,19.27
2018-09-03T04:50:22.710Z,19.25
2018-09-03T04:51:22.600Z,19.28
2018-09-03T04:52:22.589Z,19.21
2018-09-03T04:53:22.578Z,19.21
2018-09-03T04:54:22.573Z,19.24
2018-09-03T04:55:22.786Z,19.21
2018-09-03T04:56:22.548Z,19.24
2018-09-03T04:57:22.536Z,19.17
2018-09-03T04:58:22.533Z,19.21
2018-09-03T04:59:22.558Z,19.16
2018-09-03T05:00:22.536Z,19.24
2018-09-03T05:01:22.534Z,19.23
2018-09-03T05:02:22.483Z,19.27
2018-09-03T05:03:22.770Z,19.17
2018-09-03T05:04:22.462Z,19.23
2018-09-03T05:05:22.473Z,19.24
2018-09-03T05:06:23.429Z,19.24
2018-09-03T05:07:22.816Z,19.23
2018-09-03T05:08:22.417Z,19.20
2018-09-03T05:09:23.059Z,19.23
2018-09-03T05:10:22.398Z,19.30
2018-09-03T05:11:23.261Z,19.24
2018-09-03T05:12:22.374Z,19.32
2018-09-03T05:13:23.179Z,19.38
2018-09-03T05:14:22.352Z,19.42
2018-09-03T05:15:22.847Z,19.40
2018-09-03T05:16:22.343Z,19.38
2018-09-03T05:17:22.891Z,19.47
2018-09-03T05:18:22.308Z,19.47
2018-09-03T05:19:22.299Z,19.45
2018-09-03T05:20:22.287Z,19.49
2018-09-03T05:21:22.299Z,19.49
2018-09-03T05:22:22.268Z,19.45
2018-09-03T05:23:22.255Z,19.47
2018-09-03T05:24:22.245Z,19.43
2018-09-03T05:25:22.232Z,19.45
2018-09-03T05:26:22.238Z,19.46
2018-09-03T05:27:22.214Z,19.45
2018-09-03T05:28:22.208Z,19.45
2018-09-03T05:29:22.188Z,19.43
2018-09-03T05:30:22.178Z,19.46
2018-09-03T05:31:22.211Z,19.43
2018-09-03T05:32:22.157Z,19.47
2018-09-03T05:33:22.153Z,19.46
2018-09-03T05:34:22.134Z,19.47
2018-09-03T05:35:22.125Z,19.46
2018-09-03T05:36:22.129Z,19.45
2018-09-03T05:37:22.102Z,19.46
2018-09-03T05:38:22.092Z,19.45
2018-09-03T05:39:22.083Z,19.60
2018-09-03T05:40:22.070Z,19.47
2018-09-03T05:41:22.080Z,19.52
2018-09-03T05:42:22.050Z,19.55
2018-09-03T05:43:22.177Z,19.50
2018-09-03T05:44:22.032Z,19.45
2018-09-03T05:45:22.015Z,19.49
2018-09-03T05:46:22.023Z,19.47
2018-09-03T05:47:21.995Z,19.49
2018-09-03T05:48:21.985Z,19.55
2018-09-03T05:49:21.972Z,19.49
2018-09-03T05:50:22.221Z,19.49
2018-09-03T05:51:21.985Z,19.50
2018-09-03T05:52:21.940Z,19.47
2018-09-03T05:53:21.930Z,19.53
2018-09-03T05:54:21.919Z,19.50
2018-09-03T05:55:21.908Z,19.50
2018-09-03T05:56:21.917Z,19.61
2018-09-03T05:57:21.888Z,19.50
2018-09-03T05:58:21.874Z,19.47
2018-09-03T05:59:21.865Z,19.47
2018-09-03T06:00:21.853Z,19.47
2018-09-03T06:01:21.857Z,19.46
2018-09-03T06:02:21.834Z,19.45
2018-09-03T06:03:21.818Z,19.50
2018-09-03T06:04:21.807Z,19.45
2018-09-03T06:05:21.798Z,19.45
2018-09-03T06:06:21.802Z,19.45
2018-09-03T06:07:21.782Z,19.46
2018-09-03T06:08:21.767Z,19.43
2018-09-03T06:09:21.754Z,19.42
2018-09-03T06:10:21.792Z,19.55
2018-09-03T06:11:21.747Z,19.45
2018-09-03T06:12:21.726Z,19.46
2018-09-03T06:13:21.711Z,19.49
2018-09-03T06:14:21.698Z,19.46
2018-09-03T06:15:21.689Z,19.40
2018-09-03T06:16:21.700Z,19.38
2018-09-03T06:17:21.669Z,19.42
2018-09-03T06:18:21.684Z,19.35
2018-09-03T06:19:21.645Z,19.40
2018-09-03T06:20:21.635Z,19.38
2018-09-03T06:21:21.623Z,19.31
2018-09-03T06:22:21.631Z,19.32
2018-09-03T06:23:21.602Z,19.34
2018-09-03T06:24:21.597Z,19.39
2018-09-03T06:25:21.581Z,19.35
2018-09-03T06:26:21.569Z,19.42
2018-09-03T06:27:21.579Z,19.43
2018-09-03T06:28:21.548Z,19.45
2018-09-03T06:29:21.537Z,19.49
2018-09-03T06:30:21.530Z,19.49
2018-09-03T06:31:21.598Z,19.42
2018-09-03T06:32:21.522Z,19.50
2018-09-03T06:33:21.495Z,19.40
2018-09-03T06:34:21.484Z,19.52
2018-09-03T06:35:21.488Z,19.47
2018-09-03T06:36:21.466Z,19.47
2018-09-03T06:37:21.475Z,19.47
2018-09-03T06:38:21.446Z,19.42
2018-09-03T06:39:21.442Z,19.32
2018-09-03T06:40:21.422Z,19.30
2018-09-03T06:41:21.414Z,19.32
2018-09-03T06:42:21.438Z,19.31
2018-09-03T06:43:21.392Z,19.39
2018-09-03T06:44:21.381Z,19.39
2018-09-03T06:45:21.376Z,19.30
2018-09-03T06:46:21.369Z,19.25
2018-09-03T06:47:21.367Z,19.25
2018-09-03T06:48:21.334Z,19.25
2018-09-03T06:49:21.325Z,19.23
2018-09-03T06:50:21.315Z,19.20
2018-09-03T06:51:21.304Z,19.15
2018-09-03T06:52:21.306Z,19.13
2018-09-03T06:53:21.291Z,19.13
2018-09-03T06:54:21.283Z,19.13
2018-09-03T06:55:21.704Z,19.17
2018-09-03T06:56:21.248Z,19.13
2018-09-03T06:57:21.264Z,19.15
2018-09-03T06:58:21.234Z,19.17
2018-09-03T06:59:21.215Z,19.21
2018-09-03T07:00:21.211Z,19.24
2018-09-03T07:01:21.190Z,19.28
2018-09-03T07:02:21.203Z,19.27
2018-09-03T07:03:21.181Z,19.32
2018-09-03T07:04:21.194Z,19.38
2018-09-03T07:05:21.159Z,19.40
2018-09-03T07:06:21.146Z,19.40
2018-09-03T07:07:21.142Z,19.45
2018-09-03T07:08:21.737Z,19.45
2018-09-03T07:09:21.902Z,19.47
2018-09-03T07:10:21.096Z,19.49
2018-09-03T07:11:21.092Z,19.49
2018-09-03T07:12:21.089Z,19.49
2018-09-03T07:13:21.988Z,19.52
2018-09-03T07:14:21.057Z,19.58
2018-09-03T07:15:21.064Z,19.55
2018-09-03T07:16:21.029Z,19.61
2018-09-03T07:17:21.034Z,19.58
2018-09-03T07:18:21.007Z,19.67
2018-09-03T07:19:21.000Z,19.60
2018-09-03T07:20:20.997Z,19.62
2018-09-03T07:21:20.976Z,19.65
2018-09-03T07:22:20.988Z,19.65
2018-09-03T07:23:20.956Z,19.60
2018-09-03T07:24:20.948Z,19.65
2018-09-03T07:25:20.936Z,19.60
2018-09-03T07:26:20.918Z,19.60
2018-09-03T07:27:20.947Z,19.65
2018-09-03T07:28:21.620Z,19.62
2018-09-03T07:29:20.887Z,19.70
2018-09-03T07:30:20.873Z,19.58
2018-09-03T07:31:20.889Z,19.65
2018-09-03T07:32:20.871Z,19.61
2018-09-03T07:33:20.841Z,19.61
2018-09-03T07:34:20.832Z,19.57
2018-09-03T07:35:20.828Z,19.57
2018-09-03T07:36:20.814Z,19.60
2018-09-03T07:37:20.812Z,19.60
2018-09-03T07:38:20.805Z,19.65
2018-09-03T07:39:20.775Z,19.65
2018-09-03T07:40:20.767Z,19.64
2018-09-03T07:41:20.753Z,19.64
2018-09-03T07:42:20.795Z,19.65
2018-09-03T07:43:20.730Z,19.68
2018-09-03T07:44:20.732Z,19.67
2018-09-03T07:45:20.711Z,19.70
2018-09-03T07:46:20.699Z,19.65
2018-09-03T07:47:20.689Z,19.71
2018-09-03T07:48:20.714Z,19.65
2018-09-03T07:49:20.693Z,19.68
2018-09-03T07:50:20.678Z,19.68
2018-09-03T07:51:20.650Z,19.70
2018-09-03T07:52:20.643Z,19.71
2018-09-03T07:53:20.639Z,19.71
2018-09-03T07:54:20.614Z,19.68
2018-09-03T07:55:20.604Z,19.70
2018-09-03T07:56:20.591Z,19.71
2018-09-03T07:57:20.580Z,19.71
2018-09-03T07:58:20.593Z,19.80
2018-09-03T07:59:20.572Z,19.67
2018-09-03T08:00:20.547Z,19.68
2018-09-03T08:01:21.889Z,19.75
2018-09-03T08:02:20.524Z,19.83
2018-09-03T08:03:20.531Z,19.72
2018-09-03T08:04:20.513Z,19.67
2018-09-03T08:05:20.512Z,19.79
2018-09-03T08:06:20.492Z,19.76
2018-09-03T08:07:20.579Z,19.78
2018-09-03T08:08:20.477Z,19.85
2018-09-03T08:09:20.450Z,19.79
2018-09-03T08:10:20.439Z,19.79
2018-09-03T08:11:20.427Z,19.86
2018-09-03T08:12:20.417Z,19.78
2018-09-03T08:13:20.430Z,19.79
2018-09-03T08:14:20.402Z,19.83
2018-09-03T08:15:20.382Z,19.87
2018-09-03T08:16:20.384Z,19.79
2018-09-03T08:17:20.365Z,19.87
2018-09-03T08:18:20.396Z,19.80
2018-09-03T08:19:20.337Z,19.79
2018-09-03T08:20:20.326Z,19.92
2018-09-03T08:21:20.318Z,19.87
2018-09-03T08:22:20.305Z,19.90
2018-09-03T08:23:20.309Z,19.94
2018-09-03T08:24:20.295Z,19.90
2018-09-03T08:25:20.281Z,19.89
2018-09-03T08:26:20.311Z,19.92
2018-09-03T08:27:20.267Z,19.89
2018-09-03T08:28:20.257Z,20.04
2018-09-03T08:29:20.229Z,19.90
2018-09-03T08:30:20.243Z,20.02
2018-09-03T08:31:20.202Z,20.02
2018-09-03T08:32:20.191Z,19.97
2018-09-03T08:33:20.211Z,19.89
2018-09-03T08:34:20.168Z,19.89
2018-09-03T08:35:20.212Z,19.89
2018-09-03T08:36:20.145Z,19.92
2018-09-03T08:37:20.136Z,19.79
2018-09-03T08:38:20.192Z,19.78
2018-09-03T08:39:20.117Z,19.67
2018-09-03T08:40:20.121Z,19.70
2018-09-03T08:41:20.088Z,19.71
2018-09-03T08:42:20.076Z,19.64
2018-09-03T08:43:20.082Z,19.64
2018-09-03T08:44:20.053Z,19.60
2018-09-03T08:45:20.040Z,19.60
2018-09-03T08:46:20.034Z,19.65
2018-09-03T08:47:20.029Z,19.65
2018-09-03T08:48:20.026Z,19.61
2018-09-03T08:49:19.994Z,19.64
2018-09-03T08:50:19.995Z,19.65
2018-09-03T08:51:19.973Z,19.58
2018-09-03T08:52:19.960Z,19.70
2018-09-03T08:53:19.972Z,19.67
2018-09-03T08:54:19.945Z,19.75
2018-09-03T08:55:19.937Z,19.67
2018-09-03T08:56:19.920Z,19.72
2018-09-03T08:57:19.908Z,19.72
2018-09-03T08:58:19.912Z,19.79
2018-09-03T08:59:19.879Z,19.86
2018-09-03T09:00:19.869Z,19.75
2018-09-03T09:01:19.858Z,19.87
2018-09-03T09:02:19.845Z,19.89
2018-09-03T09:03:19.853Z,19.94
2018-09-03T09:04:19.835Z,19.82
2018-09-03T09:05:19.823Z,19.82
2018-09-03T09:06:19.801Z,19.80
2018-09-03T09:07:19.789Z,19.78
2018-09-03T09:08:19.794Z,19.78
2018-09-03T09:09:19.768Z,19.79
2018-09-03T09:10:19.769Z,19.80
2018-09-03T09:11:19.743Z,19.87
2018-09-03T09:12:19.733Z,19.79
2018-09-03T09:13:19.719Z,19.92
2018-09-03T09:14:19.725Z,19.90
2018-09-03T09:15:19.700Z,20.01
2018-09-03T09:16:19.694Z,19.97
2018-09-03T09:17:19.682Z,20.12
2018-09-03T09:18:19.661Z,20.16
2018-09-03T09:19:19.672Z,20.07
2018-09-03T09:20:19.640Z,20.15
2018-09-03T09:21:19.640Z,20.07
2018-09-03T09:22:19.615Z,20.08
2018-09-03T09:23:19.612Z,20.12
2018-09-03T09:24:19.656Z,20.13
2018-09-03T09:25:19.588Z,20.12
2018-09-03T09:26:19.571Z,19.98
2018-09-03T09:27:19.616Z,19.95
2018-09-03T09:28:19.552Z,19.94
2018-09-03T09:29:19.554Z,19.95
2018-09-03T09:30:19.527Z,19.95
2018-09-03T09:31:19.513Z,19.89
2018-09-03T09:32:19.550Z,19.85
2018-09-03T09:33:19.498Z,19.78
2018-09-03T09:34:19.492Z,19.80
2018-09-03T09:35:19.469Z,19.68
2018-09-03T09:36:19.460Z,19.70
2018-09-03T09:37:21.459Z,19.70
2018-09-03T09:38:19.439Z,19.70
2018-09-03T09:39:19.440Z,19.71
2018-09-03T09:40:19.410Z,19.65
2018-09-03T09:41:19.467Z,19.79
2018-09-03T09:42:19.407Z,19.78
2018-09-03T09:43:19.382Z,19.72
2018-09-03T09:44:19.404Z,19.83
2018-09-03T09:45:19.353Z,19.87
2018-09-03T09:46:19.344Z,19.97
2018-09-03T09:47:19.338Z,19.90
2018-09-03T09:48:19.325Z,20.05
2018-09-03T09:49:19.325Z,20.00
2018-09-03T09:50:19.295Z,19.98
2018-09-03T09:51:19.292Z,19.95
2018-09-03T09:52:19.273Z,19.97
2018-09-03T09:53:19.265Z,20.10
2018-09-03T09:54:19.266Z,20.12
2018-09-03T09:55:19.242Z,20.16
2018-09-03T09:56:19.232Z,20.10
2018-09-03T09:57:19.214Z,20.17
2018-09-03T09:58:19.206Z,20.12
2018-09-03T09:59:19.209Z,20.12
2018-09-03T10:00:19.215Z,20.12
2018-09-03T10:01:19.170Z,20.15
2018-09-03T10:02:19.174Z,20.17
2018-09-03T10:03:19.151Z,20.19
2018-09-03T10:04:19.209Z,20.13
2018-09-03T10:05:19.124Z,20.07
2018-09-03T10:06:19.112Z,20.12
2018-09-03T10:07:19.102Z,20.15
2018-09-03T10:08:19.099Z,20.19
2018-09-03T10:09:19.102Z,20.16
2018-09-03T10:10:19.075Z,20.22
2018-09-03T10:11:19.057Z,20.16
2018-09-03T10:12:19.046Z,20.23
2018-09-03T10:13:19.035Z,20.30
2018-09-03T10:14:19.039Z,20.25
2018-09-03T10:15:19.039Z,20.31
2018-09-03T10:16:19.001Z,20.33
2018-09-03T10:17:18.991Z,20.26
2018-09-03T10:18:18.984Z,20.38
2018-09-03T10:19:18.988Z,20.40
2018-09-03T10:20:18.960Z,20.42
2018-09-03T10:21:18.956Z,20.41
2018-09-03T10:22:18.938Z,20.46
2018-09-03T10:23:18.937Z,20.44
2018-09-03T10:24:19.039Z,20.53
2018-09-03T10:25:18.906Z,20.56
2018-09-03T10:26:18.956Z,20.58
2018-09-03T10:27:18.894Z,20.60
2018-09-03T10:28:18.867Z,20.63
2018-09-03T10:29:18.925Z,20.68
2018-09-03T10:30:18.860Z,20.63
2018-09-03T10:31:18.836Z,20.68
2018-09-03T10:32:18.828Z,20.68
2018-09-03T10:33:18.830Z,20.66
2018-09-03T10:34:18.838Z,20.75
2018-09-03T10:35:18.791Z,20.66
2018-09-03T10:36:18.799Z,20.71
2018-09-03T10:37:18.775Z,20.61
2018-09-03T10:38:18.768Z,20.71
2018-09-03T10:39:18.748Z,20.72
2018-09-03T10:40:18.767Z,20.72
2018-09-03T10:41:18.740Z,20.78
2018-09-03T10:42:18.716Z,20.79
2018-09-03T10:43:18.704Z,20.73
2018-09-03T10:44:18.719Z,20.73
2018-09-03T10:45:20.400Z,20.72
2018-09-03T10:46:18.671Z,20.72
2018-09-03T10:47:18.777Z,20.73
2018-09-03T10:48:18.649Z,20.73
2018-09-03T10:49:18.640Z,20.69
2018-09-03T10:50:18.641Z,20.73
2018-09-03T10:51:18.617Z,20.75
2018-09-03T10:52:18.605Z,20.71
2018-09-03T10:53:18.604Z,20.69
2018-09-03T10:54:18.583Z,20.69
2018-09-03T10:55:18.606Z,20.64
2018-09-03T10:56:18.560Z,20.71
2018-09-03T10:57:18.562Z,20.66
2018-09-03T10:58:18.541Z,20.66
2018-09-03T10:59:18.533Z,20.64
2018-09-03T11:00:18.532Z,20.60
2018-09-03T11:01:18.505Z,20.63
2018-09-03T11:02:18.498Z,20.66
2018-09-03T11:03:18.511Z,20.68
2018-09-03T11:04:18.475Z,20.64
2018-09-03T11:05:18.500Z,20.64
2018-09-03T11:06:18.464Z,20.64
2018-09-03T11:07:18.440Z,20.66
2018-09-03T11:08:18.490Z,20.61
2018-09-03T11:09:18.417Z,20.66
2018-09-03T11:10:18.427Z,20.63
2018-09-03T11:11:18.402Z,20.66
2018-09-03T11:12:18.388Z,20.57
2018-09-03T11:13:18.374Z,20.58
2018-09-03T11:14:18.536Z,20.58
2018-09-03T11:15:18.367Z,20.61
2018-09-03T11:16:18.366Z,20.60
2018-09-03T11:17:18.335Z,20.58
2018-09-03T11:18:18.329Z,20.58
2018-09-03T11:19:18.312Z,20.50
2018-09-03T11:20:18.312Z,20.56
2018-09-03T11:21:18.415Z,20.48
2018-09-03T11:22:18.313Z,20.48
2018-09-03T11:23:18.262Z,20.54
2018-09-03T11:24:18.250Z,20.51
2018-09-03T11:25:18.260Z,20.48
2018-09-03T11:26:18.247Z,20.53
2018-09-03T11:27:18.220Z,20.50
2018-09-03T11:28:18.222Z,20.51
2018-09-03T11:29:18.198Z,20.58
2018-09-03T11:30:18.212Z,20.54
2018-09-03T11:31:18.178Z,20.54
2018-09-03T11:32:18.176Z,20.46
2018-09-03T11:33:18.155Z,20.48
2018-09-03T11:34:18.142Z,20.41
2018-09-03T11:35:18.199Z,20.40
2018-09-03T11:36:18.119Z,20.37
2018-09-03T11:37:18.112Z,20.38
2018-09-03T11:38:18.140Z,20.31
2018-09-03T11:39:18.104Z,20.34
2018-09-03T11:40:18.099Z,20.33
2018-09-03T11:41:18.067Z,20.27
2018-09-03T11:42:18.068Z,20.31
2018-09-03T11:43:18.052Z,20.38
2018-09-03T11:44:18.037Z,20.41
2018-09-03T11:45:18.045Z,20.33
2018-09-03T11:46:18.022Z,20.37
2018-09-03T11:47:17.998Z,20.41
2018-09-03T11:48:18.009Z,20.40
2018-09-03T11:49:17.975Z,20.44
2018-09-03T11:50:17.968Z,20.46
2018-09-03T11:51:17.973Z,20.41
2018-09-03T11:52:17.941Z,20.51
2018-09-03T11:53:17.931Z,20.54
2018-09-03T11:54:17.927Z,20.50
2018-09-03T11:55:17.917Z,20.48
2018-09-03T11:56:17.923Z,20.61
2018-09-03T11:57:17.887Z,20.56
2018-09-03T11:58:17.877Z,20.60
2018-09-03T11:59:17.864Z,20.61
2018-09-03T12:00:17.878Z,20.63
2018-09-03T12:01:18.507Z,20.60
2018-09-03T12:02:17.832Z,20.63
2018-09-03T12:03:17.820Z,20.63
2018-09-03T12:04:17.810Z,20.63
2018-09-03T12:05:17.801Z,20.64
2018-09-03T12:06:18.224Z,20.63
2018-09-03T12:07:18.422Z,20.64
2018-09-03T12:08:17.767Z,20.69
2018-09-03T12:09:17.754Z,20.73
2018-09-03T12:10:17.742Z,20.73
2018-09-03T12:11:17.756Z,20.71
2018-09-03T12:12:17.728Z,20.79
2018-09-03T12:13:17.709Z,20.88
2018-09-03T12:14:17.706Z,20.76
2018-09-03T12:15:19.661Z,20.83
2018-09-03T12:16:17.693Z,20.85
2018-09-03T12:17:17.668Z,20.83
2018-09-03T12:18:17.659Z,20.90
2018-09-03T12:19:17.643Z,20.88
2018-09-03T12:20:17.631Z,20.97
2018-09-03T12:21:18.480Z,20.97
2018-09-03T12:22:17.611Z,21.01
2018-09-03T12:23:17.625Z,21.05
2018-09-03T12:24:17.589Z,21.01
2018-09-03T12:25:17.581Z,21.00
2018-09-03T12:26:17.583Z,21.11
2018-09-03T12:27:17.555Z,21.16
2018-09-03T12:28:17.546Z,21.15
2018-09-03T12:29:17.540Z,21.27
2018-09-03T12:30:17.543Z,21.31
2018-09-03T12:31:17.543Z,21.26
2018-09-03T12:32:17.501Z,21.36
2018-09-03T12:33:17.502Z,21.34
2018-09-03T12:34:17.487Z,21.33
2018-09-03T12:35:17.475Z,21.34
2018-09-03T12:36:17.474Z,21.34
2018-09-03T12:37:17.450Z,21.34
2018-09-03T12:38:17.438Z,21.28
2018-09-03T12:39:18.761Z,21.26
2018-09-03T12:40:17.422Z,21.15
2018-09-03T12:41:17.433Z,21.19
2018-09-03T12:42:17.391Z,21.09
2018-09-03T12:43:17.381Z,21.13
2018-09-03T12:44:17.375Z,21.13
2018-09-03T12:45:17.357Z,21.19
2018-09-03T12:46:17.439Z,21.24
2018-09-03T12:47:17.340Z,21.27
2018-09-03T12:48:17.330Z,21.31
2018-09-03T12:49:17.318Z,21.37
2018-09-03T12:50:17.319Z,21.37
2018-09-03T12:51:17.381Z,21.43
2018-09-03T12:52:17.284Z,21.48